Time;durP1;ratioP1;P1;durP2;ratioP2;P2;SDS_P1;SDS_P2;PMS_P1;PMS_P2;Temp;Humidity;BMP_temperature;BMP_pressure;BME280_temperature;BME280_humidity;BME280_pressure;Samples;Min_cycle;Max_cycle;Signal;HPM_P1;HPM_P2
2022/10/11 00:03:01;;;;;;;10.50;2.28;;;7.80;99.90;;;;;;9187290;19;20092;-65
2022/10/11 00:06:05;;;;;;;7.50;2.20;;;7.80;99.90;;;;;;9183345;19;20074;-66
2022/10/11 00:09:13;;;;;;;14.50;2.20;;;7.80;99.90;;;;;;9187251;19;20018;-65
2022/10/11 00:12:17;;;;;;;7.28;2.50;;;7.70;99.90;;;;;;9186567;19;20538;-65
2022/10/11 00:15:23;;;;;;;9.75;2.75;;;7.90;99.90;;;;;;9185137;19;20015;-65
2022/10/11 00:18:27;;;;;;;14.70;2.70;;;7.90;99.90;;;;;;9187611;19;20476;-65
2022/10/11 00:21:31;;;;;;;9.05;2.20;;;7.80;99.90;;;;;;9185375;19;20082;-65
2022/10/11 00:24:38;;;;;;;10.50;2.20;;;7.80;99.90;;;;;;9186208;19;20429;-65
2022/10/11 00:27:42;;;;;;;10.93;2.07;;;7.70;99.90;;;;;;9187401;19;20030;-65
2022/10/11 00:30:45;;;;;;;10.15;2.25;;;7.70;99.90;;;;;;9186529;19;20282;-65
2022/10/11 00:33:50;;;;;;;17.60;3.13;;;7.60;99.90;;;;;;9184753;19;20491;-66
2022/10/11 00:36:54;;;;;;;11.63;2.20;;;7.80;99.90;;;;;;9183035;19;20064;-65
2022/10/11 00:40:01;;;;;;;10.88;2.00;;;8.10;99.90;;;;;;9187001;19;20022;-65
2022/10/11 00:43:05;;;;;;;8.80;2.38;;;7.80;99.90;;;;;;9186891;19;20381;-64
2022/10/11 00:46:29;;;;;;;10.73;2.10;;;7.70;99.90;;;;;;9181893;19;20053;-65
2022/10/11 00:49:37;;;;;;;11.70;2.15;;;8.00;99.90;;;;;;9183354;19;20019;-66
2022/10/11 00:52:44;;;;;;;9.45;1.85;;;7.80;99.90;;;;;;9183842;19;20043;-65
2022/10/11 00:55:55;;;;;;;10.88;2.30;;;7.80;99.90;;;;;;9184779;19;20025;-66
2022/10/11 00:59:02;;;;;;;11.00;2.17;;;7.60;99.90;;;;;;9186664;19;20018;-66
2022/10/11 01:02:06;;;;;;;10.80;2.13;;;8.00;99.90;;;;;;9185259;19;20352;-65
2022/10/11 01:05:14;;;;;;;10.57;2.00;;;7.80;99.90;;;;;;9184498;19;20007;-65
2022/10/11 01:08:18;;;;;;;9.85;2.25;;;8.00;99.90;;;;;;9183826;19;20024;-65
2022/10/11 01:11:27;;;;;;;8.85;1.90;;;8.20;99.90;;;;;;9184264;19;20015;-66
2022/10/11 01:14:55;;;;;;;7.35;2.10;;;7.80;99.90;;;;;;9181596;19;20070;-65
2022/10/11 01:18:05;;;;;;;12.10;2.10;;;7.80;99.90;;;;;;9183625;19;20035;-65
2022/10/11 01:21:18;;;;;;;8.52;2.20;;;7.70;99.90;;;;;;9182941;19;20022;-65
2022/10/11 01:24:40;;;;;;;8.77;2.30;;;7.70;99.90;;;;;;9182427;19;20030;-66
2022/10/11 01:28:22;;;;;;;11.93;2.95;;;7.70;99.90;;;;;;9182492;19;20014;-65
2022/10/11 01:31:36;;;;;;;10.50;2.20;;;7.70;99.90;;;;;;9181721;19;20022;-65
2022/10/11 01:34:43;;;;;;;10.75;2.63;;;7.80;99.90;;;;;;9184437;19;20011;-66
2022/10/11 01:37:54;;;;;;;9.18;2.13;;;8.50;99.90;;;;;;9182517;19;20344;-65
2022/10/11 01:41:01;;;;;;;11.75;2.25;;;7.60;99.90;;;;;;9181389;19;20008;-65
2022/10/11 01:44:08;;;;;;;14.00;2.50;;;7.50;99.90;;;;;;9184754;19;20015;-65
2022/10/11 01:47:14;;;;;;;8.52;2.08;;;7.50;99.90;;;;;;9175061;19;20018;-65
2022/10/11 01:50:37;;;;;;;10.48;2.22;;;7.50;99.90;;;;;;9182340;19;20011;-66
2022/10/11 01:53:52;;;;;;;10.02;2.10;;;7.70;99.90;;;;;;9179739;19;20625;-65
2022/10/11 01:57:21;;;;;;;10.23;2.13;;;7.50;99.90;;;;;;9186033;19;20018;-65
2022/10/11 02:00:28;;;;;;;9.07;1.90;;;7.50;99.90;;;;;;9185335;19;20006;-65
2022/10/11 02:03:45;;;;;;;11.60;1.90;;;7.40;99.90;;;;;;9181269;19;20025;-65
2022/10/11 02:06:59;;;;;;;7.95;1.98;;;7.40;99.90;;;;;;9181785;19;20086;-65
2022/10/11 02:10:13;;;;;;;8.15;1.92;;;7.30;99.90;;;;;;9179690;19;20082;-66
2022/10/11 02:13:25;;;;;;;9.85;2.40;;;7.30;99.90;;;;;;9177202;19;20784;-66
2022/10/11 02:16:34;;;;;;;10.93;2.15;;;7.40;99.90;;;;;;9181038;19;20029;-63
2022/10/11 02:19:45;;;;;;;10.90;1.95;;;7.70;99.90;;;;;;9181593;19;20022;-66
2022/10/11 02:22:53;;;;;;;10.13;1.98;;;7.20;99.90;;;;;;9179137;19;20014;-65
2022/10/11 02:25:57;;;;;;;;;;;7.50;99.90;;;;;;9183548;19;20081;-65
2022/10/11 02:29:04;;;;;;;8.40;2.00;;;7.20;99.90;;;;;;9178660;19;19918;-65
2022/10/11 02:32:10;;;;;;;13.37;2.03;;;7.20;99.90;;;;;;9181588;19;20016;-66
2022/10/11 02:35:17;;;;;;;7.20;1.88;;;7.30;99.90;;;;;;9179351;19;20014;-65
2022/10/11 02:38:26;;;;;;;12.55;2.40;;;7.20;99.90;;;;;;9178278;19;20019;-65
2022/10/11 02:41:35;;;;;;;14.45;2.30;;;7.60;99.90;;;;;;9180525;19;20500;-66
2022/10/11 02:44:44;;;;;;;11.40;2.40;;;7.20;99.90;;;;;;9177813;19;20490;-65
2022/10/11 02:47:49;;;;;;;12.93;2.20;;;7.20;99.90;;;;;;9176879;19;20025;-65
2022/10/11 02:50:57;;;;;;;11.98;2.05;;;7.30;99.90;;;;;;9182705;19;20052;-65
2022/10/11 02:54:01;;;;;;;15.32;2.20;;;7.50;99.90;;;;;;9177816;19;20363;-64
2022/10/11 02:57:05;;;;;;;12.93;2.35;;;7.40;99.90;;;;;;9177789;19;20448;-65
2022/10/11 03:00:10;;;;;;;7.82;2.00;;;7.10;99.90;;;;;;9183495;19;20070;-65
2022/10/11 03:03:14;;;;;;;14.85;2.00;;;6.80;99.90;;;;;;9177504;19;20371;-65
2022/10/11 03:06:21;;;;;;;13.02;1.90;;;6.90;99.90;;;;;;9177207;19;20021;-65
2022/10/11 03:09:25;;;;;;;11.48;1.83;;;;;;;;;;9182685;19;20021;-65
2022/10/11 03:12:29;;;;;;;9.60;2.00;;;;;;;;;;9176897;19;20021;-65
2022/10/11 03:15:33;;;;;;;9.18;2.60;;;;;;;;;;9178499;19;20018;-65
2022/10/11 03:18:37;;;;;;;7.78;1.60;;;;;;;;;;9179099;19;20048;-66
2022/10/11 03:21:44;;;;;;;11.73;2.30;;;7.00;99.90;;;;;;9177421;19;20023;-65
2022/10/11 03:24:48;;;;;;;10.67;2.87;;;;;;;;;;9178867;19;20091;-65
2022/10/11 03:27:52;;;;;;;14.68;2.60;;;6.70;99.90;;;;;;9176728;19;20082;-65
2022/10/11 03:30:56;;;;;;;10.57;2.00;;;7.30;99.90;;;;;;9177243;19;20015;-65
2022/10/11 03:34:00;;;;;;;9.80;2.38;;;6.80;99.90;;;;;;9173019;19;20482;-65
2022/10/11 03:37:06;;;;;;;7.43;2.13;;;6.80;99.90;;;;;;9178315;19;20419;-66
2022/10/11 03:40:11;;;;;;;;;;;7.00;99.90;;;;;;9178776;19;20053;-65
2022/10/11 03:43:15;;;;;;;10.82;2.10;;;7.10;99.90;;;;;;9176423;19;20260;-65
2022/10/11 03:46:19;;;;;;;10.77;2.17;;;6.70;99.90;;;;;;9176892;19;20479;-65
2022/10/11 03:49:24;;;;;;;12.82;2.80;;;;;;;;;;9178534;19;20025;-65
2022/10/11 03:52:30;;;;;;;13.27;3.90;;;6.60;99.90;;;;;;9178562;19;20031;-65
2022/10/11 03:55:34;;;;;;;8.57;2.90;;;6.50;99.90;;;;;;9176562;19;20030;-67
2022/10/11 03:58:39;;;;;;;10.25;2.10;;;7.00;99.90;;;;;;9175882;19;20026;-65
2022/10/11 04:01:43;;;;;;;9.93;2.13;;;6.40;99.90;;;;;;9177526;19;20037;-65
2022/10/11 04:04:47;;;;;;;14.52;2.03;;;;;;;;;;9176419;19;20491;-66
2022/10/11 04:07:54;;;;;;;7.63;2.05;;;6.20;99.90;;;;;;9176052;19;20018;-66
2022/10/11 04:10:58;;;;;;;11.97;3.00;;;;;;;;;;9180412;19;20050;-65
2022/10/11 04:14:02;;;;;;;14.35;2.90;;;;;;;;;;9183599;19;20271;-65
2022/10/11 04:17:06;;;;;;;6.55;2.10;;;6.50;99.90;;;;;;9184186;19;20070;-65
2022/10/11 04:20:11;;;;;;;8.65;2.50;;;6.70;99.90;;;;;;9186158;19;20043;-65
2022/10/11 04:23:17;;;;;;;13.00;2.30;;;6.40;99.90;;;;;;9184781;19;20503;-64
2022/10/11 04:26:22;;;;;;;11.37;2.23;;;;;;;;;;9183992;19;20011;-64
2022/10/11 04:29:26;;;;;;;12.70;2.63;;;;;;;;;;9186879;19;20028;-64
2022/10/11 04:32:30;;;;;;;13.70;2.45;;;6.50;99.90;;;;;;9186712;19;20018;-64
2022/10/11 04:35:34;;;;;;;14.13;3.15;;;;;;;;;;9184276;19;20022;-64
2022/10/11 04:38:40;;;;;;;12.63;1.98;;;6.50;99.90;;;;;;9185415;19;20010;-64
2022/10/11 04:41:45;;;;;;;8.50;2.22;;;6.70;99.90;;;;;;9183944;19;20043;-64
2022/10/11 04:44:49;;;;;;;12.40;2.63;;;6.40;99.90;;;;;;9184956;19;20488;-64
2022/10/11 04:47:53;;;;;;;9.93;2.03;;;6.40;99.90;;;;;;9181029;19;20014;-65
2022/10/11 04:50:57;;;;;;;8.60;2.33;;;6.30;99.90;;;;;;9185277;19;20015;-64
2022/10/11 04:54:04;;;;;;;9.73;2.35;;;6.40;99.90;;;;;;9184785;19;20014;-64
2022/10/11 04:57:08;;;;;;;10.90;2.20;;;;;;;;;;9184741;19;20043;-64
2022/10/11 05:00:13;;;;;;;12.40;2.67;;;6.30;99.90;;;;;;9187289;19;20049;-64
2022/10/11 05:03:17;;;;;;;9.30;2.35;;;;;;;;;;9185911;19;20044;-64
2022/10/11 05:06:23;;;;;;;14.88;3.42;;;6.40;99.90;;;;;;9183889;19;20015;-64
2022/10/11 05:09:30;;;;;;;10.00;2.70;;;6.40;99.90;;;;;;9184221;19;20016;-64
2022/10/11 05:12:34;;;;;;;15.00;3.28;;;;;;;;;;9184134;19;20053;-64
2022/10/11 05:15:38;;;;;;;12.23;2.67;;;6.40;99.90;;;;;;9183764;19;20079;-64
2022/10/11 05:18:42;;;;;;;12.52;2.92;;;6.50;99.90;;;;;;9185441;19;20022;-64
2022/10/11 05:21:46;;;;;;;12.50;2.20;;;6.50;99.90;;;;;;9182912;19;20010;-65
2022/10/11 05:24:53;;;;;;;12.25;2.40;;;6.50;99.90;;;;;;9180624;19;20035;-64
2022/10/11 05:27:56;;;;;;;10.37;2.60;;;6.20;99.90;;;;;;9180443;19;20014;-64
2022/10/11 05:31:00;;;;;;;15.25;2.55;;;6.50;99.90;;;;;;9180866;19;20317;-64
2022/10/11 05:34:04;;;;;;;18.88;2.55;;;;;;;;;;9184626;19;20039;-63
2022/10/11 05:37:08;;;;;;;9.38;2.58;;;6.50;99.90;;;;;;9182064;19;20508;-63
2022/10/11 05:40:15;;;;;;;10.55;2.10;;;6.60;99.90;;;;;;9184088;19;20010;-63
2022/10/11 05:43:20;;;;;;;11.80;2.30;;;6.50;99.90;;;;;;9178441;19;20086;-63
2022/10/11 05:46:24;;;;;;;10.93;2.00;;;;;;;;;;9179320;19;20014;-63
2022/10/11 05:49:28;;;;;;;12.48;2.58;;;;;;;;;;9183794;19;20022;-64
2022/10/11 05:52:32;;;;;;;9.93;2.58;;;6.50;99.90;;;;;;9180131;19;20090;-62
2022/10/11 05:55:44;;;;;;;17.17;2.95;;;6.60;99.90;;;;;;9179080;19;20031;-64
2022/10/11 05:58:48;;;;;;;8.68;2.50;;;;;;;;;;9179322;19;20391;-64
2022/10/11 06:01:52;;;;;;;13.15;2.38;;;;;;;;;;9182820;19;20345;-64
2022/10/11 06:04:56;;;;;;;9.10;2.80;;;6.50;99.90;;;;;;9181089;19;20070;-64
2022/10/11 06:08:00;;;;;;;7.70;2.20;;;6.80;99.90;;;;;;9182588;19;20082;-64
2022/10/11 06:11:14;;;;;;;9.05;2.20;;;6.60;99.90;;;;;;9184489;19;20010;-64
2022/10/11 06:14:19;;;;;;;12.00;2.50;;;;;;;;;;9179897;19;20015;-64
2022/10/11 06:17:22;;;;;;;7.05;2.30;;;6.70;99.90;;;;;;9178894;19;20017;-64
2022/10/11 06:20:27;;;;;;;13.02;2.30;;;6.40;99.90;;;;;;9178413;19;20048;-65
2022/10/11 06:23:31;;;;;;;10.73;2.15;;;;;;;;;;9183709;19;20093;-64
2022/10/11 06:26:37;;;;;;;7.95;2.38;;;6.80;99.90;;;;;;9178532;19;20014;-64
2022/10/11 06:29:41;;;;;;;10.02;2.30;;;6.50;99.90;;;;;;9176077;19;20094;-64
2022/10/11 06:32:45;;;;;;;14.10;2.80;;;6.80;99.90;;;;;;9177215;19;20018;-64
2022/10/11 06:35:49;;;;;;;10.23;2.88;;;6.80;99.90;;;;;;9177537;19;20376;-64
2022/10/11 06:38:54;;;;;;;13.35;2.08;;;;;;;;;;9178115;19;20010;-64
2022/10/11 06:42:00;;;;;;;12.60;2.45;;;7.00;99.90;;;;;;9182633;19;20018;-65
2022/10/11 06:45:05;;;;;;;;;;;7.10;99.90;;;;;;9178458;19;20042;-64
2022/10/11 06:48:08;;;;;;;14.43;2.33;;;6.90;99.90;;;;;;9178742;19;19935;-64
2022/10/11 06:51:13;;;;;;;11.60;2.50;;;7.10;99.90;;;;;;9178014;19;20034;-64
2022/10/11 06:54:17;;;;;;;9.68;2.20;;;7.10;99.90;;;;;;9177809;19;20018;-64
2022/10/11 06:57:24;;;;;;;12.18;3.30;;;7.20;99.90;;;;;;9181068;19;20021;-64
2022/10/11 07:00:28;;;;;;;13.23;2.60;;;7.20;99.90;;;;;;9177944;19;20492;-64
2022/10/11 07:03:32;;;;;;;11.57;2.53;;;7.20;99.90;;;;;;9179342;19;20045;-64
2022/10/11 07:06:40;;;;;;;15.25;2.35;;;7.20;99.90;;;;;;9177972;19;20479;-64
2022/10/11 07:09:44;;;;;;;13.70;2.50;;;;;;;;;;9177987;19;20019;-64
2022/10/11 07:12:51;;;;;;;9.27;2.45;;;7.50;99.90;;;;;;9179480;19;20085;-63
2022/10/11 07:15:54;;;;;;;7.68;2.00;;;7.60;99.90;;;;;;9176459;19;20021;-64
2022/10/11 07:19:00;;;;;;;9.20;2.17;;;7.60;99.90;;;;;;9178742;19;20015;-64
2022/10/11 07:22:04;;;;;;;14.60;2.60;;;7.80;99.90;;;;;;9180094;19;20023;-64
2022/10/11 07:25:09;;;;;;;15.55;2.85;;;7.70;99.90;;;;;;9178204;19;20010;-64
2022/10/11 07:28:16;;;;;;;8.73;2.05;;;8.00;99.90;;;;;;9174790;19;20015;-63
2022/10/11 07:31:22;;;;;;;11.38;2.45;;;7.90;99.90;;;;;;9177995;19;20025;-64
2022/10/11 07:34:26;;;;;;;13.93;2.45;;;7.90;99.90;;;;;;9179770;19;20053;-64
2022/10/11 07:37:30;;;;;;;10.90;2.53;;;8.00;99.90;;;;;;9177383;19;20019;-65
2022/10/11 07:40:34;;;;;;;12.95;2.85;;;8.00;99.90;;;;;;9181958;19;20015;-64
2022/10/11 07:43:42;;;;;;;9.82;2.28;;;8.10;99.90;;;;;;9175696;19;20011;-65
2022/10/11 07:46:47;;;;;;;12.23;2.20;;;;;;;;;;9180451;19;20449;-64
2022/10/11 07:49:52;;;;;;;8.68;2.47;;;8.40;99.90;;;;;;9186896;19;20022;-63
2022/10/11 07:52:56;;;;;;;12.07;2.30;;;8.50;99.90;;;;;;9184830;19;20115;-64
2022/10/11 07:56:02;;;;;;;12.35;2.25;;;8.60;99.90;;;;;;9187635;19;20041;-66
2022/10/11 07:59:09;;;;;;;8.37;2.17;;;8.70;99.90;;;;;;9184324;19;20021;-65
2022/10/11 08:02:14;;;;;;;11.25;2.35;;;8.80;99.90;;;;;;9184405;19;20006;-66
2022/10/11 08:05:18;;;;;;;11.95;1.92;;;8.80;99.90;;;;;;9187857;19;20014;-64
2022/10/11 08:08:22;;;;;;;9.90;2.15;;;;;;;;;;9187677;19;20033;-64
2022/10/11 08:11:28;;;;;;;8.05;1.90;;;8.90;99.90;;;;;;9183993;19;20487;-64
2022/10/11 08:14:35;;;;;;;12.57;2.95;;;9.00;99.90;;;;;;9187438;19;20007;-65
2022/10/11 08:17:38;;;;;;;13.38;2.42;;;9.00;99.90;;;;;;9183455;19;20018;-65
2022/10/11 08:20:42;;;;;;;10.98;2.33;;;9.00;99.90;;;;;;9184667;19;20053;-65
2022/10/11 08:23:47;;;;;;;9.05;2.35;;;;;;;;;;9184027;19;20321;-64
2022/10/11 08:26:50;;;;;;;8.85;2.22;;;9.10;99.90;;;;;;9184863;19;20018;-66
2022/10/11 08:29:57;;;;;;;8.68;2.20;;;9.30;99.90;;;;;;9185587;19;20061;-65
2022/10/11 08:33:01;;;;;;;10.73;2.25;;;9.30;99.90;;;;;;9181980;19;20014;-65
2022/10/11 08:36:07;;;;;;;11.43;2.90;;;9.50;99.90;;;;;;9182334;19;20022;-65
2022/10/11 08:39:13;;;;;;;9.77;1.98;;;9.60;99.90;;;;;;9187318;19;20019;-65
2022/10/11 08:42:30;;;;;;;10.18;2.00;;;9.80;99.90;;;;;;9183211;19;20025;-65
2022/10/11 08:45:42;;;;;;;12.65;2.15;;;9.90;99.90;;;;;;9182346;19;20044;-64
2022/10/11 08:48:50;;;;;;;12.32;2.58;;;10.00;99.90;;;;;;9179595;19;20022;-65
2022/10/11 08:52:01;;;;;;;9.20;2.45;;;10.10;99.90;;;;;;9183465;19;20488;-64
2022/10/11 08:55:08;;;;;;;21.45;2.40;;;10.30;99.90;;;;;;9186387;19;20018;-65
2022/10/11 08:58:14;;;;;;;;;;;10.30;99.90;;;;;;9181979;19;20052;-65
2022/10/11 09:01:25;;;;;;;6.18;1.48;;;10.80;99.90;;;;;;9181742;19;20340;-65
2022/10/11 09:04:31;;;;;;;9.55;2.00;;;10.60;99.90;;;;;;9183094;19;20011;-65
2022/10/11 09:07:44;;;;;;;12.20;1.98;;;10.70;99.90;;;;;;9184310;19;20147;-64
2022/10/11 09:10:58;;;;;;;11.20;2.75;;;10.80;99.90;;;;;;9184032;19;20017;-65
2022/10/11 09:14:30;;;;;;;9.15;2.08;;;11.00;99.90;;;;;;9184599;19;20010;-65
2022/10/11 09:17:49;;;;;;;13.77;2.28;;;11.20;99.90;;;;;;9181073;19;20014;-66
2022/10/11 09:21:01;;;;;;;7.03;2.15;;;11.00;99.90;;;;;;9181838;19;20379;-65
2022/10/11 09:24:26;;;;;;;10.77;2.15;;;11.50;99.90;;;;;;9185792;19;20018;-65
2022/10/11 09:27:37;;;;;;;9.48;1.92;;;11.70;99.90;;;;;;9184449;19;20520;-65
2022/10/11 09:30:48;;;;;;;11.75;2.00;;;11.60;99.90;;;;;;9183739;19;20018;-65
2022/10/11 09:33:55;;;;;;;9.60;2.13;;;11.70;99.90;;;;;;9186617;19;20114;-65
2022/10/11 09:37:05;;;;;;;9.02;1.80;;;11.90;99.90;;;;;;9180914;19;20022;-65
2022/10/11 09:40:24;;;;;;;8.63;2.35;;;11.70;99.90;;;;;;9181778;19;20017;-65
2022/10/11 09:43:28;;;;;;;14.15;2.20;;;11.90;99.90;;;;;;9185357;19;20024;-66
2022/10/11 09:46:37;;;;;;;8.35;2.00;;;12.00;99.90;;;;;;9181905;19;20111;-66
2022/10/11 09:49:49;;;;;;;11.35;2.15;;;12.00;99.90;;;;;;9178842;19;20018;-65
2022/10/11 09:52:55;;;;;;;8.35;1.90;;;12.40;99.90;;;;;;9180616;19;20495;-65
2022/10/11 09:56:05;;;;;;;11.18;1.73;;;11.80;99.90;;;;;;9182711;19;20024;-65
2022/10/11 09:59:25;;;;;;;11.25;2.10;;;12.60;99.90;;;;;;9182245;19;20027;-65
2022/10/11 10:02:30;;;;;;;13.63;2.30;;;12.40;99.90;;;;;;9180892;19;20056;-65
2022/10/11 10:05:38;;;;;;;10.38;1.88;;;12.40;99.90;;;;;;9175301;19;20043;-64
2022/10/11 10:08:44;;;;;;;12.13;2.30;;;12.80;99.90;;;;;;9174769;19;20483;-64
2022/10/11 10:11:48;;;;;;;13.20;2.28;;;12.70;99.90;;;;;;9180017;19;20022;-63
2022/10/11 10:15:06;;;;;;;13.10;2.70;;;12.80;99.90;;;;;;9175053;19;20049;-67
2022/10/11 10:18:23;;;;;;;9.30;2.08;;;12.70;99.90;;;;;;9181114;19;20015;-65
2022/10/11 10:21:35;;;;;;;14.60;2.33;;;12.70;99.90;;;;;;9178841;19;20020;-65
2022/10/11 10:24:41;;;;;;;15.68;3.15;;;13.20;99.90;;;;;;9178999;19;20074;-64
2022/10/11 10:27:59;;;;;;;8.48;1.90;;;13.30;99.90;;;;;;8880222;19;3009691;-64
2022/10/11 10:31:02;;;;;;;;;;;13.40;99.90;;;;;;9181204;19;20026;-64
2022/10/11 10:34:14;;;;;;;11.05;1.85;;;13.50;99.90;;;;;;9179860;19;19923;-65
2022/10/11 10:37:27;;;;;;;8.75;1.70;;;13.50;99.90;;;;;;9177790;19;20511;-63
2022/10/11 10:40:38;;;;;;;8.68;1.77;;;13.60;99.90;;;;;;9176527;19;20018;-64
2022/10/11 10:43:45;;;;;;;8.98;2.15;;;13.70;99.90;;;;;;9176875;19;20026;-65
2022/10/11 10:47:03;;;;;;;12.25;2.10;;;13.70;99.90;;;;;;9177618;19;20021;-63
2022/10/11 10:50:13;;;;;;;13.05;2.17;;;13.70;99.90;;;;;;9177966;19;20018;-64
2022/10/11 10:53:29;;;;;;;10.40;2.30;;;13.50;99.90;;;;;;9177185;19;20018;-64
2022/10/11 10:56:39;;;;;;;10.55;1.80;;;13.60;99.90;;;;;;9177359;19;20010;-64
2022/10/11 11:00:03;;;;;;;7.93;1.92;;;13.90;99.90;;;;;;9177027;19;20011;-65
2022/10/11 11:03:13;;;;;;;11.18;2.28;;;14.30;99.90;;;;;;9180202;19;20426;-64
2022/10/11 11:06:26;;;;;;;12.93;2.20;;;14.40;99.90;;;;;;9178110;19;20053;-65
2022/10/11 11:09:43;;;;;;;8.75;1.98;;;14.50;99.90;;;;;;9175103;19;20040;-64
2022/10/11 11:12:54;;;;;;;8.43;1.67;;;14.50;99.90;;;;;;9176620;19;20014;-65
2022/10/11 11:16:08;;;;;;;8.68;1.80;;;14.50;99.90;;;;;;9176662;19;20078;-64
2022/10/11 11:19:24;;;;;;;10.75;1.83;;;14.20;99.90;;;;;;9178349;19;20041;-64
2022/10/11 11:22:38;;;;;;;12.02;2.10;;;13.90;99.90;;;;;;9186249;19;20022;-64
2022/10/11 11:25:51;;;;;;;9.57;2.13;;;13.70;99.90;;;;;;9185618;19;20027;-64
2022/10/11 11:29:24;;;;;;;11.00;2.08;;;13.70;99.90;;;;;;9183333;19;20037;-63
2022/10/11 11:32:39;;;;;;;13.05;2.38;;;13.50;99.90;;;;;;9185712;19;20010;-64
2022/10/11 11:35:47;;;;;;;11.07;1.80;;;13.60;99.90;;;;;;9187528;19;20499;-64
2022/10/11 11:38:56;;;;;;;10.57;2.60;;;13.60;99.90;;;;;;9182781;19;20019;-65
2022/10/11 11:42:08;;;;;;;9.75;2.22;;;14.20;99.90;;;;;;9170285;19;20022;-65
2022/10/11 11:45:20;;;;;;;6.90;2.00;;;14.20;99.90;;;;;;9187076;19;20018;-65
2022/10/11 11:48:26;;;;;;;9.45;2.17;;;14.60;99.90;;;;;;9183270;19;20045;-65
2022/10/11 11:51:36;;;;;;;6.88;1.80;;;14.90;99.90;;;;;;9183660;19;20018;-65
2022/10/11 11:54:50;;;;;;;8.32;1.75;;;15.40;99.90;;;;;;9187231;19;20154;-65
2022/10/11 11:58:09;;;;;;;7.25;1.77;;;15.30;99.90;;;;;;9182142;19;20011;-66
2022/10/11 12:01:22;;;;;;;11.40;1.95;;;15.20;99.90;;;;;;9187451;19;20022;-65
2022/10/11 12:04:31;;;;;;;8.60;1.63;;;15.40;99.90;;;;;;9182426;19;20039;-65
2022/10/11 12:07:51;;;;;;;9.05;1.95;;;15.50;99.90;;;;;;9186542;19;20047;-65
2022/10/11 12:11:01;;;;;;;7.50;1.90;;;15.70;99.90;;;;;;9185175;19;20031;-65
2022/10/11 12:14:18;;;;;;;9.88;1.80;;;15.90;99.90;;;;;;9181458;19;20074;-66
2022/10/11 12:17:24;;;;;;;8.52;1.95;;;16.00;99.90;;;;;;9182269;19;20018;-64
2022/10/11 12:20:30;;;;;;;8.85;1.55;;;15.90;99.90;;;;;;9185942;19;20394;-66
2022/10/11 12:23:49;;;;;;;6.15;1.50;;;15.50;99.90;;;;;;9184339;19;20598;-65
2022/10/11 12:26:57;;;;;;;9.10;1.60;;;15.20;99.90;;;;;;9182780;19;20479;-66
2022/10/11 12:30:03;;;;;;;7.82;2.10;;;15.20;99.90;;;;;;9178501;19;20018;-66
2022/10/11 12:33:15;;;;;;;9.57;1.85;;;14.80;99.90;;;;;;9179728;19;20011;-65
2022/10/11 12:36:37;;;;;;;7.93;1.90;;;14.50;99.90;;;;;;9185211;19;20021;-66
2022/10/11 12:39:51;;;;;;;5.65;1.55;;;14.30;99.90;;;;;;9184074;19;20015;-66
2022/10/11 12:43:11;;;;;;;10.57;2.72;;;14.10;99.90;;;;;;9184766;19;20014;-66
2022/10/11 12:46:45;;;;;;;13.02;3.15;;;14.00;99.90;;;;;;9184026;19;20410;-66
2022/10/11 12:50:05;;;;;;;9.90;1.90;;;13.80;99.90;;;;;;9178579;19;20011;-65
2022/10/11 12:53:22;;;;;;;13.95;2.22;;;13.80;99.90;;;;;;9185783;19;20043;-66
2022/10/11 12:56:38;;;;;;;8.43;2.27;;;13.60;99.90;;;;;;9180452;19;20014;-65
2022/10/11 12:59:47;;;;;;;11.27;2.85;;;13.70;99.90;;;;;;9176442;19;20011;-66
2022/10/11 13:02:52;;;;;;;5.38;1.67;;;13.20;99.90;;;;;;9182585;19;20043;-66
2022/10/11 13:05:59;;;;;;;9.20;2.30;;;13.60;99.90;;;;;;9180646;19;20010;-66
2022/10/11 13:09:07;;;;;;;10.20;2.50;;;13.60;99.90;;;;;;9179538;19;20018;-66
2022/10/11 13:12:16;;;;;;;9.48;2.38;;;13.70;99.90;;;;;;9186060;19;20010;-65
2022/10/11 13:15:23;;;;;;;7.78;1.80;;;13.40;99.90;;;;;;9179211;19;20543;-65
2022/10/11 13:18:28;;;;;;;;;;;13.60;99.90;;;;;;9180647;19;20014;-66
2022/10/11 13:21:38;;;;;;;10.65;2.35;;;13.70;99.90;;;;;;9182924;19;19982;-66
2022/10/11 13:24:43;;;;;;;8.23;1.75;;;13.90;99.90;;;;;;9179623;19;20018;-66
2022/10/11 13:27:47;;;;;;;7.43;2.17;;;14.00;99.90;;;;;;9181933;19;20018;-65
2022/10/11 13:30:54;;;;;;;12.23;2.20;;;14.30;99.90;;;;;;8906465;19;3009808;-65
2022/10/11 13:33:59;;;;;;;;;;;14.20;99.90;;;;;;9099659;19;20508;-66
2022/10/11 13:37:05;;;;;;;13.18;2.58;;;14.10;99.90;;;;;;9183541;19;19915;-66
2022/10/11 13:40:16;;;;;;;9.73;2.60;;;13.90;99.90;;;;;;9177957;19;20010;-66
2022/10/11 13:43:23;;;;;;;5.82;1.92;;;14.00;99.90;;;;;;9174913;19;20452;-65
2022/10/11 13:46:29;;;;;;;11.10;2.30;;;14.00;99.90;;;;;;9179102;19;20086;-65
2022/10/11 13:49:39;;;;;;;10.68;2.47;;;13.80;99.90;;;;;;9179243;19;20045;-65
2022/10/11 13:53:22;;;;;;;11.70;2.10;;;14.00;99.90;;;;;;9179966;19;20011;-65
2022/10/11 13:56:28;;;;;;;15.18;3.53;;;13.90;99.90;;;;;;9180178;19;20011;-66
2022/10/11 13:59:32;;;;;;;8.68;2.08;;;14.10;99.90;;;;;;9174961;19;20736;-65
2022/10/11 14:02:36;;;;;;;6.65;2.10;;;14.20;99.90;;;;;;9183233;19;20014;-65
2022/10/11 14:05:42;;;;;;;7.97;1.80;;;14.10;99.90;;;;;;9179197;19;20049;-65
2022/10/11 14:08:51;;;;;;;14.38;2.33;;;14.70;99.90;;;;;;9182276;19;20068;-65
2022/10/11 14:11:56;;;;;;;6.78;2.45;;;15.30;99.90;;;;;;9180491;19;20026;-65
2022/10/11 14:15:01;;;;;;;8.48;1.95;;;15.60;99.90;;;;;;9176896;19;20010;-65
2022/10/11 14:18:33;;;;;;;8.48;1.92;;;16.10;99.90;;;;;;9178204;19;20010;-65
2022/10/11 14:21:51;;;;;;;8.75;2.35;;;16.40;99.90;;;;;;9177164;19;20286;-64
2022/10/11 14:24:57;;;;;;;10.75;2.08;;;16.80;99.90;;;;;;9181704;19;20090;-64
2022/10/11 14:28:01;;;;;;;11.82;1.90;;;17.00;99.90;;;;;;9180974;19;20006;-64
2022/10/11 14:31:05;;;;;;;8.00;1.58;;;17.10;99.90;;;;;;9179340;19;20024;-64
2022/10/11 14:34:11;;;;;;;9.18;1.83;;;17.40;99.90;;;;;;9176411;19;20015;-64
2022/10/11 14:37:17;;;;;;;7.50;2.67;;;17.70;99.90;;;;;;9183158;19;20014;-65
2022/10/11 14:40:26;;;;;;;8.10;2.47;;;17.70;99.80;;;;;;9174669;19;20453;-64
2022/10/11 14:43:30;;;;;;;10.18;2.70;;;17.30;99.90;;;;;;9175766;19;20021;-64
2022/10/11 14:46:34;;;;;;;9.77;1.90;;;17.00;99.90;;;;;;9177590;19;20420;-64
2022/10/11 14:49:39;;;;;;;5.30;1.63;;;17.20;99.90;;;;;;9178998;19;20688;-63
2022/10/11 14:52:43;;;;;;;7.22;1.60;;;17.90;99.50;;;;;;9179186;19;20002;-65
2022/10/11 14:55:50;;;;;;;9.63;2.95;;;17.90;99.20;;;;;;9174346;19;20017;-64
2022/10/11 14:58:55;;;;;;;9.32;1.92;;;17.20;98.80;;;;;;9178081;19;20049;-64
2022/10/11 15:01:58;;;;;;;8.48;1.90;;;16.70;99.90;;;;;;9181060;19;20021;-64
2022/10/11 15:05:03;;;;;;;8.85;2.00;;;16.10;99.90;;;;;;9179508;19;20015;-65
2022/10/11 15:08:08;;;;;;;6.45;1.67;;;15.80;99.90;;;;;;9175597;19;20067;-64
2022/10/11 15:11:17;;;;;;;11.30;2.60;;;15.60;99.90;;;;;;9180982;19;20014;-65
2022/10/11 15:14:21;;;;;;;6.53;1.60;;;15.20;99.90;;;;;;9174556;19;20399;-65
2022/10/11 15:17:25;;;;;;;11.50;2.05;;;15.20;99.90;;;;;;9179349;19;20011;-64
2022/10/11 15:20:32;;;;;;;8.98;1.85;;;14.90;99.90;;;;;;9173020;19;20018;-64
2022/10/11 15:23:36;;;;;;;;;;;15.00;99.90;;;;;;9176128;19;20400;-64
2022/10/11 15:26:44;;;;;;;10.52;2.15;;;14.90;99.90;;;;;;9172340;19;19922;-64
2022/10/11 15:29:48;;;;;;;12.23;2.13;;;14.90;99.90;;;;;;9175186;19;20022;-65
2022/10/11 15:32:53;;;;;;;24.00;7.25;;;14.80;99.90;;;;;;9179457;19;20015;-64
2022/10/11 15:35:57;;;;;;;11.00;2.90;;;14.90;99.90;;;;;;9179221;19;20014;-64
2022/10/11 15:39:01;;;;;;;12.05;3.00;;;14.90;99.90;;;;;;9173672;19;20515;-65
2022/10/11 15:42:08;;;;;;;12.40;3.03;;;15.30;99.90;;;;;;9174240;19;20045;-65
2022/10/11 15:45:12;;;;;;;15.25;4.05;;;16.10;99.90;;;;;;9177156;19;20018;-64
2022/10/11 15:48:18;;;;;;;8.15;2.30;;;16.80;99.90;;;;;;9178036;19;20018;-65
2022/10/11 15:51:22;;;;;;;14.75;2.75;;;17.40;99.90;;;;;;9174523;19;20017;-65
2022/10/11 15:54:26;;;;;;;13.80;3.70;;;17.50;99.90;;;;;;9174165;19;20015;-66
2022/10/11 15:57:32;;;;;;;13.10;2.53;;;17.00;99.90;;;;;;9175887;19;20022;-65
2022/10/11 16:00:37;;;;;;;16.25;4.82;;;16.90;99.90;;;;;;9174825;19;20053;-65
2022/10/11 16:03:41;;;;;;;7.43;1.80;;;16.80;99.90;;;;;;9177757;19;20019;-65
2022/10/11 16:06:45;;;;;;;14.43;3.13;;;16.60;99.90;;;;;;9175354;19;20597;-64
2022/10/11 16:09:49;;;;;;;12.93;2.75;;;16.40;99.90;;;;;;9187807;19;20022;-65
2022/10/11 16:12:56;;;;;;;7.43;1.98;;;16.10;99.90;;;;;;9182126;19;20019;-64
2022/10/11 16:16:02;;;;;;;7.13;2.33;;;15.70;99.90;;;;;;9180251;19;20352;-65
2022/10/11 16:19:07;;;;;;;8.18;1.83;;;15.40;99.90;;;;;;9186622;19;20374;-64
2022/10/11 16:22:11;;;;;;;9.02;2.00;;;15.10;99.90;;;;;;9183068;19;20015;-65
2022/10/11 16:25:15;;;;;;;11.02;2.25;;;14.90;99.90;;;;;;9182909;19;20478;-64
2022/10/11 16:28:21;;;;;;;11.68;2.90;;;14.70;99.90;;;;;;9182329;19;20017;-64
2022/10/11 16:31:25;;;;;;;14.60;5.40;;;14.50;99.90;;;;;;9185877;19;20066;-64